sensor_id;sensor_type;location;lat;lon;timestamp;P1;durP1;ratioP1;P2;durP2;ratioP2
29002;SDS011;16102;57.138;-2.118;2023-03-23T00:00:52;16.70;;;3.25;;
29002;SDS011;16102;57.138;-2.118;2023-03-23T00:03:19;12.93;;;2.33;;
29002;SDS011;16102;57.138;-2.118;2023-03-23T00:05:47;14.95;;;2.42;;
29002;SDS011;16102;57.138;-2.118;2023-03-23T00:08:19;21.85;;;3.13;;
29002;SDS011;16102;57.138;-2.118;2023-03-23T00:10:51;20.13;;;4.05;;
29002;SDS011;16102;57.138;-2.118;2023-03-23T00:13:24;11.63;;;2.17;;
29002;SDS011;16102;57.138;-2.118;2023-03-23T00:15:51;12.57;;;2.97;;
29002;SDS011;16102;57.138;-2.118;2023-03-23T00:18:18;9.13;;;2.38;;
29002;SDS011;16102;57.138;-2.118;2023-03-23T00:20:48;21.10;;;3.28;;
29002;SDS011;16102;57.138;-2.118;2023-03-23T00:23:24;9.35;;;2.17;;
29002;SDS011;16102;57.138;-2.118;2023-03-23T00:25:52;15.10;;;2.78;;
29002;SDS011;16102;57.138;-2.118;2023-03-23T00:28:21;10.40;;;1.83;;
29002;SDS011;16102;57.138;-2.118;2023-03-23T00:31:00;10.52;;;2.05;;
29002;SDS011;16102;57.138;-2.118;2023-03-23T00:33:30;10.77;;;3.08;;
29002;SDS011;16102;57.138;-2.118;2023-03-23T00:36:05;20.30;;;3.67;;
29002;SDS011;16102;57.138;-2.118;2023-03-23T00:38:34;18.08;;;3.28;;
29002;SDS011;16102;57.138;-2.118;2023-03-23T00:41:01;13.15;;;1.98;;
29002;SDS011;16102;57.138;-2.118;2023-03-23T00:43:30;27.55;;;4.10;;
29002;SDS011;16102;57.138;-2.118;2023-03-23T00:45:56;20.65;;;3.70;;
29002;SDS011;16102;57.138;-2.118;2023-03-23T00:48:26;27.40;;;4.45;;
29002;SDS011;16102;57.138;-2.118;2023-03-23T00:50:53;23.33;;;3.75;;
29002;SDS011;16102;57.138;-2.118;2023-03-23T00:53:19;10.27;;;2.20;;
29002;SDS011;16102;57.138;-2.118;2023-03-23T00:55:46;20.75;;;3.03;;
29002;SDS011;16102;57.138;-2.118;2023-03-23T00:58:13;10.30;;;2.08;;
29002;SDS011;16102;57.138;-2.118;2023-03-23T01:00:40;13.30;;;2.85;;
29002;SDS011;16102;57.138;-2.118;2023-03-23T01:03:06;17.75;;;3.42;;
29002;SDS011;16102;57.138;-2.118;2023-03-23T01:05:37;6.15;;;1.50;;
29002;SDS011;16102;57.138;-2.118;2023-03-23T01:08:04;5.80;;;2.30;;
29002;SDS011;16102;57.138;-2.118;2023-03-23T01:10:31;12.57;;;2.33;;
29002;SDS011;16102;57.138;-2.118;2023-03-23T01:13:03;6.60;;;1.95;;
29002;SDS011;16102;57.138;-2.118;2023-03-23T01:15:30;11.25;;;2.30;;
29002;SDS011;16102;57.138;-2.118;2023-03-23T01:17:56;16.83;;;2.35;;
29002;SDS011;16102;57.138;-2.118;2023-03-23T01:20:23;17.67;;;2.90;;
29002;SDS011;16102;57.138;-2.118;2023-03-23T01:22:49;8.27;;;2.10;;
29002;SDS011;16102;57.138;-2.118;2023-03-23T01:25:15;17.95;;;3.42;;
29002;SDS011;16102;57.138;-2.118;2023-03-23T01:27:41;21.20;;;4.40;;
29002;SDS011;16102;57.138;-2.118;2023-03-23T01:30:08;11.35;;;2.22;;
29002;SDS011;16102;57.138;-2.118;2023-03-23T01:32:37;13.73;;;2.13;;
29002;SDS011;16102;57.138;-2.118;2023-03-23T01:35:03;8.57;;;2.25;;
29002;SDS011;16102;57.138;-2.118;2023-03-23T01:37:33;11.75;;;2.25;;
29002;SDS011;16102;57.138;-2.118;2023-03-23T01:39:58;5.53;;;1.40;;
29002;SDS011;16102;57.138;-2.118;2023-03-23T01:42:25;7.18;;;1.65;;
29002;SDS011;16102;57.138;-2.118;2023-03-23T01:53:26;8.23;;;2.35;;
29002;SDS011;16102;57.138;-2.118;2023-03-23T01:55:55;20.05;;;4.30;;
29002;SDS011;16102;57.138;-2.118;2023-03-23T01:58:25;16.17;;;4.20;;
29002;SDS011;16102;57.138;-2.118;2023-03-23T02:00:54;10.68;;;2.05;;
29002;SDS011;16102;57.138;-2.118;2023-03-23T02:03:24;18.10;;;3.08;;
29002;SDS011;16102;57.138;-2.118;2023-03-23T02:05:50;8.45;;;2.00;;
29002;SDS011;16102;57.138;-2.118;2023-03-23T02:08:17;7.43;;;1.85;;
29002;SDS011;16102;57.138;-2.118;2023-03-23T02:10:43;11.27;;;2.30;;
29002;SDS011;16102;57.138;-2.118;2023-03-23T02:13:10;17.70;;;3.00;;
29002;SDS011;16102;57.138;-2.118;2023-03-23T02:18:24;14.18;;;2.35;;
29002;SDS011;16102;57.138;-2.118;2023-03-23T02:21:47;7.53;;;1.80;;
29002;SDS011;16102;57.138;-2.118;2023-03-23T02:24:19;17.80;;;4.88;;
29002;SDS011;16102;57.138;-2.118;2023-03-23T02:34:40;8.02;;;2.20;;
29002;SDS011;16102;57.138;-2.118;2023-03-23T02:37:12;17.60;;;3.42;;
29002;SDS011;16102;57.138;-2.118;2023-03-23T02:39:46;9.52;;;2.40;;
29002;SDS011;16102;57.138;-2.118;2023-03-23T02:42:17;10.55;;;2.20;;
29002;SDS011;16102;57.138;-2.118;2023-03-23T02:44:47;14.85;;;1.90;;
29002;SDS011;16102;57.138;-2.118;2023-03-23T02:47:16;9.77;;;1.50;;
29002;SDS011;16102;57.138;-2.118;2023-03-23T02:49:45;6.47;;;1.23;;
29002;SDS011;16102;57.138;-2.118;2023-03-23T02:52:19;6.32;;;1.13;;
29002;SDS011;16102;57.138;-2.118;2023-03-23T02:54:49;4.78;;;1.52;;
29002;SDS011;16102;57.138;-2.118;2023-03-23T02:57:18;4.10;;;1.25;;
29002;SDS011;16102;57.138;-2.118;2023-03-23T02:59:45;5.50;;;1.40;;
29002;SDS011;16102;57.138;-2.118;2023-03-23T03:02:16;9.07;;;1.55;;
29002;SDS011;16102;57.138;-2.118;2023-03-23T03:04:54;4.00;;;1.20;;
29002;SDS011;16102;57.138;-2.118;2023-03-23T03:12:57;5.10;;;0.50;;
29002;SDS011;16102;57.138;-2.118;2023-03-23T03:15:36;2.58;;;0.52;;
29002;SDS011;16102;57.138;-2.118;2023-03-23T03:18:18;1.85;;;0.47;;
29002;SDS011;16102;57.138;-2.118;2023-03-23T03:21:15;0.90;;;0.10;;
29002;SDS011;16102;57.138;-2.118;2023-03-23T03:23:45;1.63;;;0.20;;
29002;SDS011;16102;57.138;-2.118;2023-03-23T03:26:14;1.13;;;0.10;;
29002;SDS011;16102;57.138;-2.118;2023-03-23T03:28:43;0.40;;;0.13;;
29002;SDS011;16102;57.138;-2.118;2023-03-23T03:31:15;0.30;;;0.10;;
29002;SDS011;16102;57.138;-2.118;2023-03-23T03:33:44;0.70;;;0.13;;
29002;SDS011;16102;57.138;-2.118;2023-03-23T03:36:15;0.40;;;0.10;;
29002;SDS011;16102;57.138;-2.118;2023-03-23T03:38:46;0.32;;;0.15;;
29002;SDS011;16102;57.138;-2.118;2023-03-23T03:41:14;1.85;;;0.17;;
29002;SDS011;16102;57.138;-2.118;2023-03-23T03:43:40;0.77;;;0.10;;
29002;SDS011;16102;57.138;-2.118;2023-03-23T03:46:06;0.10;;;0.10;;
29002;SDS011;16102;57.138;-2.118;2023-03-23T03:48:33;0.25;;;0.00;;
29002;SDS011;16102;57.138;-2.118;2023-03-23T03:50:59;0.00;;;0.00;;
29002;SDS011;16102;57.138;-2.118;2023-03-23T03:53:27;0.00;;;0.00;;
29002;SDS011;16102;57.138;-2.118;2023-03-23T03:55:53;0.03;;;0.00;;
29002;SDS011;16102;57.138;-2.118;2023-03-23T03:58:22;0.20;;;0.00;;
29002;SDS011;16102;57.138;-2.118;2023-03-23T04:00:48;0.10;;;0.00;;
29002;SDS011;16102;57.138;-2.118;2023-03-23T04:03:14;0.40;;;0.05;;
29002;SDS011;16102;57.138;-2.118;2023-03-23T04:05:41;0.35;;;0.00;;
29002;SDS011;16102;57.138;-2.118;2023-03-23T04:08:10;0.00;;;0.00;;
29002;SDS011;16102;57.138;-2.118;2023-03-23T04:10:36;0.00;;;0.00;;
29002;SDS011;16102;57.138;-2.118;2023-03-23T04:13:03;0.30;;;0.00;;
29002;SDS011;16102;57.138;-2.118;2023-03-23T04:15:30;0.10;;;0.10;;
29002;SDS011;16102;57.138;-2.118;2023-03-23T04:17:56;0.00;;;0.00;;
29002;SDS011;16102;57.138;-2.118;2023-03-23T04:20:22;0.65;;;0.10;;
29002;SDS011;16102;57.138;-2.118;2023-03-23T04:22:49;0.00;;;0.00;;
29002;SDS011;16102;57.138;-2.118;2023-03-23T04:25:16;0.00;;;0.00;;
29002;SDS011;16102;57.138;-2.118;2023-03-23T04:27:46;0.50;;;0.00;;
29002;SDS011;16102;57.138;-2.118;2023-03-23T04:30:18;0.13;;;0.03;;
29002;SDS011;16102;57.138;-2.118;2023-03-23T04:32:46;0.00;;;0.00;;
29002;SDS011;16102;57.138;-2.118;2023-03-23T04:35:15;0.05;;;0.00;;
29002;SDS011;16102;57.138;-2.118;2023-03-23T04:37:42;0.28;;;0.00;;
29002;SDS011;16102;57.138;-2.118;2023-03-23T04:40:08;0.03;;;0.03;;
29002;SDS011;16102;57.138;-2.118;2023-03-23T04:42:43;1.45;;;0.00;;
29002;SDS011;16102;57.138;-2.118;2023-03-23T04:45:11;0.00;;;0.00;;
29002;SDS011;16102;57.138;-2.118;2023-03-23T04:47:48;0.08;;;0.08;;
29002;SDS011;16102;57.138;-2.118;2023-03-23T04:52:52;0.03;;;0.00;;
29002;SDS011;16102;57.138;-2.118;2023-03-23T04:55:19;0.00;;;0.00;;
29002;SDS011;16102;57.138;-2.118;2023-03-23T04:57:46;0.00;;;0.00;;
29002;SDS011;16102;57.138;-2.118;2023-03-23T05:00:12;0.00;;;0.00;;
29002;SDS011;16102;57.138;-2.118;2023-03-23T05:02:42;0.10;;;0.10;;
29002;SDS011;16102;57.138;-2.118;2023-03-23T05:05:10;0.10;;;0.10;;
29002;SDS011;16102;57.138;-2.118;2023-03-23T05:07:40;0.00;;;0.00;;
29002;SDS011;16102;57.138;-2.118;2023-03-23T05:10:07;0.10;;;0.00;;
29002;SDS011;16102;57.138;-2.118;2023-03-23T05:12:35;0.10;;;0.10;;
29002;SDS011;16102;57.138;-2.118;2023-03-23T05:15:02;0.00;;;0.00;;
29002;SDS011;16102;57.138;-2.118;2023-03-23T05:17:28;0.22;;;0.05;;
29002;SDS011;16102;57.138;-2.118;2023-03-23T05:19:55;0.00;;;0.00;;
29002;SDS011;16102;57.138;-2.118;2023-03-23T05:22:21;0.20;;;0.05;;
29002;SDS011;16102;57.138;-2.118;2023-03-23T05:24:48;0.00;;;0.00;;
29002;SDS011;16102;57.138;-2.118;2023-03-23T05:27:16;0.03;;;0.00;;
29002;SDS011;16102;57.138;-2.118;2023-03-23T05:29:44;0.32;;;0.00;;
29002;SDS011;16102;57.138;-2.118;2023-03-23T05:32:14;0.20;;;0.00;;
29002;SDS011;16102;57.138;-2.118;2023-03-23T05:34:42;0.00;;;0.00;;
29002;SDS011;16102;57.138;-2.118;2023-03-23T05:37:08;0.00;;;0.00;;
29002;SDS011;16102;57.138;-2.118;2023-03-23T05:39:35;0.30;;;0.10;;
29002;SDS011;16102;57.138;-2.118;2023-03-23T05:42:01;0.47;;;0.10;;
29002;SDS011;16102;57.138;-2.118;2023-03-23T05:44:29;0.10;;;0.10;;
29002;SDS011;16102;57.138;-2.118;2023-03-23T05:46:55;0.80;;;0.03;;
29002;SDS011;16102;57.138;-2.118;2023-03-23T05:49:21;0.10;;;0.10;;
29002;SDS011;16102;57.138;-2.118;2023-03-23T05:51:47;0.60;;;0.08;;
29002;SDS011;16102;57.138;-2.118;2023-03-23T05:54:15;0.00;;;0.00;;
29002;SDS011;16102;57.138;-2.118;2023-03-23T05:56:41;2.03;;;0.10;;
29002;SDS011;16102;57.138;-2.118;2023-03-23T05:59:08;0.00;;;0.00;;
29002;SDS011;16102;57.138;-2.118;2023-03-23T06:01:35;0.75;;;0.10;;
29002;SDS011;16102;57.138;-2.118;2023-03-23T06:04:02;0.22;;;0.00;;
29002;SDS011;16102;57.138;-2.118;2023-03-23T06:06:28;0.20;;;0.10;;
29002;SDS011;16102;57.138;-2.118;2023-03-23T06:08:57;0.65;;;0.17;;
29002;SDS011;16102;57.138;-2.118;2023-03-23T06:11:24;0.15;;;0.15;;
29002;SDS011;16102;57.138;-2.118;2023-03-23T06:13:51;0.00;;;0.00;;
29002;SDS011;16102;57.138;-2.118;2023-03-23T06:16:17;0.08;;;0.00;;
29002;SDS011;16102;57.138;-2.118;2023-03-23T06:18:44;0.55;;;0.00;;
29002;SDS011;16102;57.138;-2.118;2023-03-23T06:21:10;0.10;;;0.00;;
29002;SDS011;16102;57.138;-2.118;2023-03-23T06:23:36;1.83;;;0.08;;
29002;SDS011;16102;57.138;-2.118;2023-03-23T06:26:03;1.08;;;0.10;;
29002;SDS011;16102;57.138;-2.118;2023-03-23T06:28:31;0.22;;;0.00;;
29002;SDS011;16102;57.138;-2.118;2023-03-23T06:30:59;0.25;;;0.10;;
29002;SDS011;16102;57.138;-2.118;2023-03-23T06:33:25;0.28;;;0.10;;
29002;SDS011;16102;57.138;-2.118;2023-03-23T06:35:51;1.08;;;0.10;;
29002;SDS011;16102;57.138;-2.118;2023-03-23T06:38:17;1.55;;;0.30;;
29002;SDS011;16102;57.138;-2.118;2023-03-23T06:40:43;0.85;;;0.10;;
29002;SDS011;16102;57.138;-2.118;2023-03-23T06:43:12;2.55;;;0.20;;
29002;SDS011;16102;57.138;-2.118;2023-03-23T06:45:39;0.57;;;0.20;;
29002;SDS011;16102;57.138;-2.118;2023-03-23T06:48:05;0.15;;;0.15;;
29002;SDS011;16102;57.138;-2.118;2023-03-23T06:50:32;1.30;;;0.10;;
29002;SDS011;16102;57.138;-2.118;2023-03-23T06:52:57;0.52;;;0.20;;
29002;SDS011;16102;57.138;-2.118;2023-03-23T06:55:23;0.57;;;0.22;;
29002;SDS011;16102;57.138;-2.118;2023-03-23T06:57:49;3.30;;;0.50;;
29002;SDS011;16102;57.138;-2.118;2023-03-23T07:00:15;0.80;;;0.17;;
29002;SDS011;16102;57.138;-2.118;2023-03-23T07:02:41;2.92;;;0.45;;
29002;SDS011;16102;57.138;-2.118;2023-03-23T07:05:08;0.57;;;0.47;;
29002;SDS011;16102;57.138;-2.118;2023-03-23T07:07:35;2.30;;;0.30;;
29002;SDS011;16102;57.138;-2.118;2023-03-23T07:10:03;0.30;;;0.10;;
29002;SDS011;16102;57.138;-2.118;2023-03-23T07:12:30;0.50;;;0.10;;
29002;SDS011;16102;57.138;-2.118;2023-03-23T07:14:56;2.03;;;1.10;;
29002;SDS011;16102;57.138;-2.118;2023-03-23T07:17:22;0.38;;;0.30;;
29002;SDS011;16102;57.138;-2.118;2023-03-23T07:19:47;1.77;;;0.30;;
29002;SDS011;16102;57.138;-2.118;2023-03-23T07:22:13;4.32;;;0.20;;
29002;SDS011;16102;57.138;-2.118;2023-03-23T07:24:39;0.50;;;0.20;;
29002;SDS011;16102;57.138;-2.118;2023-03-23T07:27:05;2.50;;;0.40;;
29002;SDS011;16102;57.138;-2.118;2023-03-23T07:29:31;2.90;;;0.20;;
29002;SDS011;16102;57.138;-2.118;2023-03-23T07:32:00;1.20;;;0.50;;
29002;SDS011;16102;57.138;-2.118;2023-03-23T07:34:26;2.17;;;0.25;;
29002;SDS011;16102;57.138;-2.118;2023-03-23T07:36:53;0.98;;;0.20;;
29002;SDS011;16102;57.138;-2.118;2023-03-23T07:39:19;1.33;;;0.30;;
29002;SDS011;16102;57.138;-2.118;2023-03-23T07:41:45;2.55;;;0.52;;
29002;SDS011;16102;57.138;-2.118;2023-03-23T07:44:11;1.33;;;0.20;;
29002;SDS011;16102;57.138;-2.118;2023-03-23T07:46:37;2.70;;;0.20;;
29002;SDS011;16102;57.138;-2.118;2023-03-23T07:49:03;2.38;;;0.65;;
29002;SDS011;16102;57.138;-2.118;2023-03-23T07:51:31;0.30;;;0.20;;
29002;SDS011;16102;57.138;-2.118;2023-03-23T07:53:57;6.32;;;0.28;;
29002;SDS011;16102;57.138;-2.118;2023-03-23T07:56:24;4.25;;;0.43;;
29002;SDS011;16102;57.138;-2.118;2023-03-23T07:58:50;2.92;;;0.43;;
29002;SDS011;16102;57.138;-2.118;2023-03-23T08:01:16;1.63;;;0.30;;
29002;SDS011;16102;57.138;-2.118;2023-03-23T08:03:42;2.35;;;0.35;;
29002;SDS011;16102;57.138;-2.118;2023-03-23T08:06:08;1.13;;;0.30;;
29002;SDS011;16102;57.138;-2.118;2023-03-23T08:08:35;0.40;;;0.20;;
29002;SDS011;16102;57.138;-2.118;2023-03-23T08:11:02;4.90;;;0.47;;
29002;SDS011;16102;57.138;-2.118;2023-03-23T08:13:28;2.58;;;0.52;;
29002;SDS011;16102;57.138;-2.118;2023-03-23T08:15:54;1.80;;;0.40;;
29002;SDS011;16102;57.138;-2.118;2023-03-23T08:18:21;1.63;;;0.30;;
29002;SDS011;16102;57.138;-2.118;2023-03-23T08:20:47;0.52;;;0.30;;
29002;SDS011;16102;57.138;-2.118;2023-03-23T08:23:14;6.60;;;0.75;;
29002;SDS011;16102;57.138;-2.118;2023-03-23T08:25:41;3.95;;;0.50;;
29002;SDS011;16102;57.138;-2.118;2023-03-23T08:28:11;1.38;;;0.35;;
29002;SDS011;16102;57.138;-2.118;2023-03-23T08:30:39;3.72;;;0.35;;
29002;SDS011;16102;57.138;-2.118;2023-03-23T08:33:06;1.90;;;0.52;;
29002;SDS011;16102;57.138;-2.118;2023-03-23T08:35:35;0.90;;;0.38;;
29002;SDS011;16102;57.138;-2.118;2023-03-23T08:38:01;2.50;;;0.40;;
29002;SDS011;16102;57.138;-2.118;2023-03-23T08:40:28;5.25;;;0.63;;
29002;SDS011;16102;57.138;-2.118;2023-03-23T08:42:54;3.20;;;0.50;;
29002;SDS011;16102;57.138;-2.118;2023-03-23T08:45:21;1.75;;;0.50;;
29002;SDS011;16102;57.138;-2.118;2023-03-23T08:47:49;2.78;;;0.82;;
29002;SDS011;16102;57.138;-2.118;2023-03-23T08:50:21;3.55;;;0.63;;
29002;SDS011;16102;57.138;-2.118;2023-03-23T08:52:52;1.73;;;0.47;;
29002;SDS011;16102;57.138;-2.118;2023-03-23T08:55:19;7.22;;;1.02;;
29002;SDS011;16102;57.138;-2.118;2023-03-23T08:57:46;2.67;;;0.60;;
29002;SDS011;16102;57.138;-2.118;2023-03-23T09:00:13;2.00;;;0.38;;
29002;SDS011;16102;57.138;-2.118;2023-03-23T09:02:46;1.42;;;0.40;;
29002;SDS011;16102;57.138;-2.118;2023-03-23T09:05:17;2.72;;;0.60;;
29002;SDS011;16102;57.138;-2.118;2023-03-23T09:07:46;1.02;;;0.55;;
29002;SDS011;16102;57.138;-2.118;2023-03-23T09:10:14;2.42;;;0.40;;
29002;SDS011;16102;57.138;-2.118;2023-03-23T09:12:41;3.40;;;0.65;;
29002;SDS011;16102;57.138;-2.118;2023-03-23T09:15:09;7.32;;;0.60;;
29002;SDS011;16102;57.138;-2.118;2023-03-23T09:17:38;3.40;;;0.70;;
29002;SDS011;16102;57.138;-2.118;2023-03-23T09:20:05;1.63;;;0.60;;
29002;SDS011;16102;57.138;-2.118;2023-03-23T09:22:43;3.20;;;0.57;;
29002;SDS011;16102;57.138;-2.118;2023-03-23T09:25:12;3.30;;;0.45;;
29002;SDS011;16102;57.138;-2.118;2023-03-23T09:27:39;1.05;;;0.40;;
29002;SDS011;16102;57.138;-2.118;2023-03-23T09:30:06;2.70;;;0.50;;
29002;SDS011;16102;57.138;-2.118;2023-03-23T09:32:35;1.45;;;0.40;;
29002;SDS011;16102;57.138;-2.118;2023-03-23T09:35:02;2.05;;;0.47;;
29002;SDS011;16102;57.138;-2.118;2023-03-23T09:37:31;3.60;;;0.32;;
29002;SDS011;16102;57.138;-2.118;2023-03-23T09:39:58;3.85;;;0.63;;
29002;SDS011;16102;57.138;-2.118;2023-03-23T09:48:25;5.18;;;1.08;;
29002;SDS011;16102;57.138;-2.118;2023-03-23T09:50:40;3.78;;;0.50;;
29002;SDS011;16102;57.138;-2.118;2023-03-23T09:53:16;4.20;;;0.50;;
29002;SDS011;16102;57.138;-2.118;2023-03-23T09:55:46;2.95;;;0.63;;
29002;SDS011;16102;57.138;-2.118;2023-03-23T10:03:46;1.48;;;0.60;;
29002;SDS011;16102;57.138;-2.118;2023-03-23T10:06:16;3.08;;;0.38;;
29002;SDS011;16102;57.138;-2.118;2023-03-23T10:08:44;5.20;;;0.65;;
29002;SDS011;16102;57.138;-2.118;2023-03-23T10:14:03;7.75;;;0.50;;
29002;SDS011;16102;57.138;-2.118;2023-03-23T10:16:33;3.28;;;0.60;;
29002;SDS011;16102;57.138;-2.118;2023-03-23T10:21:35;2.65;;;0.40;;
29002;SDS011;16102;57.138;-2.118;2023-03-23T10:24:09;3.85;;;1.02;;
29002;SDS011;16102;57.138;-2.118;2023-03-23T10:29:27;9.98;;;1.23;;
29002;SDS011;16102;57.138;-2.118;2023-03-23T10:32:12;1.55;;;0.63;;
29002;SDS011;16102;57.138;-2.118;2023-03-23T10:34:59;3.67;;;0.60;;
29002;SDS011;16102;57.138;-2.118;2023-03-23T10:37:34;1.92;;;0.32;;
29002;SDS011;16102;57.138;-2.118;2023-03-23T10:40:05;2.92;;;0.55;;
29002;SDS011;16102;57.138;-2.118;2023-03-23T10:42:40;2.28;;;0.50;;
29002;SDS011;16102;57.138;-2.118;2023-03-23T10:47:43;1.00;;;0.10;;
29002;SDS011;16102;57.138;-2.118;2023-03-23T10:50:37;1.63;;;0.47;;
29002;SDS011;16102;57.138;-2.118;2023-03-23T10:53:10;3.03;;;0.68;;
29002;SDS011;16102;57.138;-2.118;2023-03-23T10:55:51;0.65;;;0.40;;
29002;SDS011;16102;57.138;-2.118;2023-03-23T10:58:38;4.25;;;0.50;;
29002;SDS011;16102;57.138;-2.118;2023-03-23T11:01:04;3.58;;;0.70;;
29002;SDS011;16102;57.138;-2.118;2023-03-23T11:03:42;1.20;;;0.40;;
29002;SDS011;16102;57.138;-2.118;2023-03-23T11:06:10;1.38;;;0.63;;
29002;SDS011;16102;57.138;-2.118;2023-03-23T11:08:47;4.95;;;0.68;;
29002;SDS011;16102;57.138;-2.118;2023-03-23T11:11:24;2.97;;;0.40;;
29002;SDS011;16102;57.138;-2.118;2023-03-23T11:18:54;0.63;;;0.60;;
29002;SDS011;16102;57.138;-2.118;2023-03-23T11:21:21;1.98;;;0.60;;
29002;SDS011;16102;57.138;-2.118;2023-03-23T11:23:53;2.65;;;0.80;;
29002;SDS011;16102;57.138;-2.118;2023-03-23T11:26:32;2.47;;;0.40;;
29002;SDS011;16102;57.138;-2.118;2023-03-23T11:29:11;1.65;;;0.40;;
29002;SDS011;16102;57.138;-2.118;2023-03-23T11:31:49;0.30;;;0.17;;
29002;SDS011;16102;57.138;-2.118;2023-03-23T11:34:18;0.55;;;0.20;;
29002;SDS011;16102;57.138;-2.118;2023-03-23T11:44:53;2.22;;;0.80;;
29002;SDS011;16102;57.138;-2.118;2023-03-23T11:47:24;4.75;;;0.73;;
29002;SDS011;16102;57.138;-2.118;2023-03-23T11:50:04;2.70;;;0.60;;
29002;SDS011;16102;57.138;-2.118;2023-03-23T11:56:08;2.65;;;0.75;;
29002;SDS011;16102;57.138;-2.118;2023-03-23T11:58:43;2.05;;;0.63;;
29002;SDS011;16102;57.138;-2.118;2023-03-23T12:01:19;0.38;;;0.28;;
29002;SDS011;16102;57.138;-2.118;2023-03-23T12:07:14;1.73;;;0.60;;
29002;SDS011;16102;57.138;-2.118;2023-03-23T12:12:33;1.42;;;0.50;;
29002;SDS011;16102;57.138;-2.118;2023-03-23T12:15:37;2.13;;;0.47;;
29002;SDS011;16102;57.138;-2.118;2023-03-23T12:21:18;1.73;;;0.55;;
29002;SDS011;16102;57.138;-2.118;2023-03-23T12:23:50;1.70;;;0.52;;
29002;SDS011;16102;57.138;-2.118;2023-03-23T12:26:45;1.80;;;0.40;;
29002;SDS011;16102;57.138;-2.118;2023-03-23T12:32:13;1.33;;;0.50;;
29002;SDS011;16102;57.138;-2.118;2023-03-23T12:42:38;1.15;;;0.43;;
29002;SDS011;16102;57.138;-2.118;2023-03-23T12:48:49;2.45;;;0.43;;
29002;SDS011;16102;57.138;-2.118;2023-03-23T12:53:44;2.13;;;0.60;;
29002;SDS011;16102;57.138;-2.118;2023-03-23T12:59:19;2.25;;;0.43;;
29002;SDS011;16102;57.138;-2.118;2023-03-23T13:02:23;2.28;;;0.32;;
29002;SDS011;16102;57.138;-2.118;2023-03-23T13:04:55;2.35;;;0.45;;
29002;SDS011;16102;57.138;-2.118;2023-03-23T13:07:44;1.60;;;0.50;;
29002;SDS011;16102;57.138;-2.118;2023-03-23T13:10:21;0.80;;;0.30;;
29002;SDS011;16102;57.138;-2.118;2023-03-23T13:13:00;2.03;;;0.47;;
29002;SDS011;16102;57.138;-2.118;2023-03-23T13:23:09;1.70;;;0.40;;
29002;SDS011;16102;57.138;-2.118;2023-03-23T13:25:59;1.95;;;0.60;;
29002;SDS011;16102;57.138;-2.118;2023-03-23T13:28:27;1.88;;;0.50;;
29002;SDS011;16102;57.138;-2.118;2023-03-23T13:31:13;1.27;;;0.47;;
29002;SDS011;16102;57.138;-2.118;2023-03-23T13:33:52;1.15;;;0.38;;
29002;SDS011;16102;57.138;-2.118;2023-03-23T13:36:29;2.85;;;0.60;;
29002;SDS011;16102;57.138;-2.118;2023-03-23T13:38:57;3.60;;;0.57;;
29002;SDS011;16102;57.138;-2.118;2023-03-23T13:41:24;1.92;;;0.57;;
29002;SDS011;16102;57.138;-2.118;2023-03-23T13:43:52;1.75;;;0.68;;
29002;SDS011;16102;57.138;-2.118;2023-03-23T13:46:30;1.35;;;0.55;;
29002;SDS011;16102;57.138;-2.118;2023-03-23T13:59:28;0.80;;;0.40;;
29002;SDS011;16102;57.138;-2.118;2023-03-23T14:05:09;1.15;;;0.40;;
29002;SDS011;16102;57.138;-2.118;2023-03-23T14:11:01;0.98;;;0.30;;
29002;SDS011;16102;57.138;-2.118;2023-03-23T14:13:47;3.33;;;0.65;;
29002;SDS011;16102;57.138;-2.118;2023-03-23T14:16:23;2.50;;;0.50;;
29002;SDS011;16102;57.138;-2.118;2023-03-23T14:21:38;0.93;;;0.40;;
29002;SDS011;16102;57.138;-2.118;2023-03-23T14:24:12;3.15;;;1.42;;
29002;SDS011;16102;57.138;-2.118;2023-03-23T14:26:43;5.35;;;1.00;;
29002;SDS011;16102;57.138;-2.118;2023-03-23T14:29:11;5.25;;;0.65;;
29002;SDS011;16102;57.138;-2.118;2023-03-23T14:31:38;4.82;;;0.88;;
29002;SDS011;16102;57.138;-2.118;2023-03-23T14:34:18;3.47;;;1.05;;
29002;SDS011;16102;57.138;-2.118;2023-03-23T14:36:45;4.40;;;0.85;;
29002;SDS011;16102;57.138;-2.118;2023-03-23T14:41:54;1.70;;;0.50;;
29002;SDS011;16102;57.138;-2.118;2023-03-23T14:44:26;3.83;;;0.75;;
29002;SDS011;16102;57.138;-2.118;2023-03-23T14:46:55;3.53;;;1.10;;
29002;SDS011;16102;57.138;-2.118;2023-03-23T14:49:31;4.00;;;1.52;;
29002;SDS011;16102;57.138;-2.118;2023-03-23T14:52:08;7.15;;;1.30;;
29002;SDS011;16102;57.138;-2.118;2023-03-23T14:54:36;3.58;;;0.70;;
29002;SDS011;16102;57.138;-2.118;2023-03-23T14:59:46;3.83;;;1.13;;
29002;SDS011;16102;57.138;-2.118;2023-03-23T15:02:16;5.30;;;1.00;;
29002;SDS011;16102;57.138;-2.118;2023-03-23T15:07:53;4.10;;;1.20;;
29002;SDS011;16102;57.138;-2.118;2023-03-23T15:10:24;5.68;;;1.40;;
29002;SDS011;16102;57.138;-2.118;2023-03-23T15:12:50;5.72;;;1.23;;
29002;SDS011;16102;57.138;-2.118;2023-03-23T15:15:33;6.03;;;0.80;;
29002;SDS011;16102;57.138;-2.118;2023-03-23T15:18:00;6.32;;;1.40;;
29002;SDS011;16102;57.138;-2.118;2023-03-23T15:20:29;5.88;;;1.88;;
29002;SDS011;16102;57.138;-2.118;2023-03-23T15:22:57;8.52;;;1.40;;
29002;SDS011;16102;57.138;-2.118;2023-03-23T15:25:31;6.38;;;1.17;;
29002;SDS011;16102;57.138;-2.118;2023-03-23T15:30:51;5.32;;;1.13;;
29002;SDS011;16102;57.138;-2.118;2023-03-23T15:33:19;9.27;;;1.20;;
29002;SDS011;16102;57.138;-2.118;2023-03-23T15:35:51;5.13;;;1.10;;
29002;SDS011;16102;57.138;-2.118;2023-03-23T15:38:24;3.58;;;0.90;;
29002;SDS011;16102;57.138;-2.118;2023-03-23T15:40:58;7.30;;;1.88;;
29002;SDS011;16102;57.138;-2.118;2023-03-23T15:43:27;6.15;;;1.45;;
29002;SDS011;16102;57.138;-2.118;2023-03-23T15:48:52;5.45;;;1.40;;
29002;SDS011;16102;57.138;-2.118;2023-03-23T15:51:20;3.53;;;1.27;;
29002;SDS011;16102;57.138;-2.118;2023-03-23T15:53:50;2.83;;;0.70;;
29002;SDS011;16102;57.138;-2.118;2023-03-23T15:56:16;7.60;;;1.27;;
29002;SDS011;16102;57.138;-2.118;2023-03-23T15:58:43;3.97;;;1.08;;
29002;SDS011;16102;57.138;-2.118;2023-03-23T16:01:12;4.80;;;1.13;;
29002;SDS011;16102;57.138;-2.118;2023-03-23T16:03:54;6.65;;;1.65;;
29002;SDS011;16102;57.138;-2.118;2023-03-23T16:06:35;4.35;;;1.13;;
29002;SDS011;16102;57.138;-2.118;2023-03-23T16:09:03;6.18;;;1.67;;
29002;SDS011;16102;57.138;-2.118;2023-03-23T16:11:31;6.25;;;1.00;;
29002;SDS011;16102;57.138;-2.118;2023-03-23T16:13:59;2.28;;;0.65;;
29002;SDS011;16102;57.138;-2.118;2023-03-23T16:19:04;6.25;;;1.23;;
29002;SDS011;16102;57.138;-2.118;2023-03-23T16:21:31;8.50;;;2.00;;
29002;SDS011;16102;57.138;-2.118;2023-03-23T16:23:59;6.47;;;1.23;;
29002;SDS011;16102;57.138;-2.118;2023-03-23T16:26:26;5.20;;;1.60;;
29002;SDS011;16102;57.138;-2.118;2023-03-23T16:28:53;6.07;;;1.55;;
29002;SDS011;16102;57.138;-2.118;2023-03-23T16:31:38;7.05;;;1.27;;
29002;SDS011;16102;57.138;-2.118;2023-03-23T16:34:05;5.93;;;1.27;;
29002;SDS011;16102;57.138;-2.118;2023-03-23T16:36:33;5.93;;;1.00;;
29002;SDS011;16102;57.138;-2.118;2023-03-23T16:39:00;10.20;;;1.38;;
29002;SDS011;16102;57.138;-2.118;2023-03-23T16:41:27;2.72;;;0.90;;
29002;SDS011;16102;57.138;-2.118;2023-03-23T16:43:54;4.40;;;1.05;;
29002;SDS011;16102;57.138;-2.118;2023-03-23T16:46:21;7.70;;;1.52;;
29002;SDS011;16102;57.138;-2.118;2023-03-23T16:48:49;1.80;;;0.60;;
29002;SDS011;16102;57.138;-2.118;2023-03-23T16:51:16;3.58;;;1.23;;
29002;SDS011;16102;57.138;-2.118;2023-03-23T16:53:42;3.85;;;1.00;;
29002;SDS011;16102;57.138;-2.118;2023-03-23T16:56:09;3.05;;;1.13;;
29002;SDS011;16102;57.138;-2.118;2023-03-23T16:58:36;6.82;;;1.48;;
29002;SDS011;16102;57.138;-2.118;2023-03-23T17:01:04;7.68;;;1.48;;
29002;SDS011;16102;57.138;-2.118;2023-03-23T17:03:31;6.57;;;1.00;;
29002;SDS011;16102;57.138;-2.118;2023-03-23T17:05:59;3.10;;;0.90;;
29002;SDS011;16102;57.138;-2.118;2023-03-23T17:08:26;2.15;;;0.80;;